Time;durP1;ratioP1;P1;durP2;ratioP2;P2;SDS_P1;SDS_P2;PMS_P1;PMS_P2;Temp;Humidity;BMP_temperature;BMP_pressure;BME280_temperature;BME280_humidity;BME280_pressure;Samples;Min_cycle;Max_cycle;Signal;HPM_P1;HPM_P2
2021/12/03 00:01:38;;;;;;;1.88;0.98;;;;;;;5.45;97.12;99525.06;5051813;28;20480;-75
2021/12/03 00:04:07;;;;;;;1.17;0.95;;;;;;;5.40;97.39;99525.06;5052402;28;20388;-75
2021/12/03 00:06:37;;;;;;;1.33;0.95;;;;;;;5.38;96.62;99530.75;5052282;28;20400;-75
2021/12/03 00:09:07;;;;;;;1.70;0.68;;;;;;;5.42;96.50;99532.94;5034547;28;20041;-75
2021/12/03 00:11:35;;;;;;;0.70;0.68;;;;;;;5.40;96.86;99548.66;5034580;28;20052;-75
2021/12/03 00:14:03;;;;;;;1.60;0.60;;;;;;;5.46;97.50;99561.97;5051932;28;20048;-75
2021/12/03 00:16:31;;;;;;;3.75;2.72;;;;;;;5.32;98.95;99552.75;5034529;28;20041;-75
2021/12/03 00:18:59;;;;;;;4.00;2.67;;;;;;;5.21;100.00;99563.59;5051588;28;20052;-75
2021/12/03 00:21:27;;;;;;;3.90;2.90;;;;;;;5.08;100.00;99564.91;5052076;28;20412;-75
2021/12/03 00:23:55;;;;;;;4.55;3.08;;;;;;;4.99;100.00;99563.81;5052041;28;20523;-75
2021/12/03 00:26:23;;;;;;;5.32;3.38;;;;;;;4.90;100.00;99568.13;5033996;28;20117;-75
2021/12/03 00:28:51;;;;;;;4.32;3.35;;;;;;;4.80;100.00;99572.41;5051756;28;20522;-75
2021/12/03 00:31:19;;;;;;;5.03;2.95;;;;;;;4.78;100.00;99561.03;5052087;28;20048;-74
2021/12/03 00:33:47;;;;;;;7.68;4.93;;;;;;;4.90;100.00;99579.78;5051818;28;20053;-75
2021/12/03 00:36:15;;;;;;;15.57;8.10;;;;;;;4.94;100.00;99580.06;5050688;28;20056;-75
2021/12/03 00:38:48;;;;;;;19.25;10.80;;;;;;;4.88;100.00;99587.34;5052148;28;20512;-75
2021/12/03 00:41:19;;;;;;;23.33;13.20;;;;;;;4.84;100.00;99587.09;5052002;28;20048;-75
2021/12/03 00:43:52;;;;;;;28.90;14.70;;;;;;;4.76;100.00;99595.75;5051780;28;20500;-75
2021/12/03 00:46:22;;;;;;;28.35;16.13;;;;;;;4.84;100.00;99603.34;5051964;28;20061;-75
2021/12/03 00:48:56;;;;;;;36.20;17.70;;;;;;;4.73;100.00;99612.53;5050610;28;20041;-74
2021/12/03 00:52:34;;;;;;;27.77;14.57;;;;;;;4.67;100.00;99619.00;5029839;28;20045;-73
2021/12/03 00:55:19;;;;;;;23.20;13.88;;;;;;;4.69;100.00;99628.50;5046008;28;20053;-74
2021/12/03 00:57:49;;;;;;;28.48;15.50;;;;;;;4.65;100.00;99632.00;5034061;28;20373;-75
2021/12/03 01:00:24;;;;;;;30.58;17.33;;;;;;;4.78;100.00;99636.94;5052516;28;20048;-75
2021/12/03 01:02:56;;;;;;;31.52;17.73;;;;;;;4.83;100.00;99630.72;5033038;28;20516;-75
2021/12/03 01:05:25;;;;;;;32.97;19.20;;;;;;;4.87;100.00;99648.09;5051561;28;20060;-75
2021/12/03 01:07:54;;;;;;;37.08;19.63;;;;;;;4.74;100.00;99652.09;5051704;28;20550;-75
2021/12/03 01:10:23;;;;;;;31.38;19.10;;;;;;;4.81;100.00;99649.97;5051596;28;20056;-75
2021/12/03 01:12:53;;;;;;;39.17;20.77;;;;;;;4.77;100.00;99651.56;5051700;28;20041;-75
2021/12/03 01:15:25;;;;;;;32.35;18.95;;;;;;;4.82;100.00;99659.75;5051980;28;20056;-75
2021/12/03 01:17:53;;;;;;;34.97;18.98;;;;;;;4.76;100.00;99654.53;5051685;28;20045;-75
2021/12/03 01:20:22;;;;;;;32.10;18.48;;;;;;;4.94;100.00;99656.00;5033302;28;20060;-75
2021/12/03 01:22:52;;;;;;;33.28;19.75;;;;;;;5.06;100.00;99651.16;5051250;28;20427;-75
2021/12/03 01:25:21;;;;;;;34.50;20.98;;;;;;;5.03;100.00;99654.38;5051669;28;20078;-75
2021/12/03 01:27:51;;;;;;;30.23;19.08;;;;;;;5.05;100.00;99663.09;5049956;28;20088;-75
2021/12/03 01:30:21;;;;;;;34.17;20.17;;;;;;;4.96;100.00;99675.50;5046488;28;20045;-75
2021/12/03 01:32:54;;;;;;;34.60;19.90;;;;;;;4.89;100.00;99677.66;5044305;28;20041;-75
2021/12/03 01:35:22;;;;;;;36.92;19.95;;;;;;;4.88;100.00;99676.81;5055532;28;20041;-75
2021/12/03 01:37:50;;;;;;;35.05;20.27;;;;;;;4.91;100.00;99679.03;5055052;28;20045;-75
2021/12/03 01:40:22;;;;;;;33.45;20.00;;;;;;;5.03;100.00;99686.13;5055523;28;20049;-75
2021/12/03 01:42:50;;;;;;;31.65;18.42;;;;;;;5.08;100.00;99688.88;5036901;28;20495;-75
2021/12/03 01:45:22;;;;;;;36.88;20.02;;;;;;;5.05;100.00;99686.66;5055388;28;20052;-75
2021/12/03 01:47:51;;;;;;;34.97;19.45;;;;;;;5.03;100.00;99691.56;5037463;28;20396;-75
2021/12/03 01:50:24;;;;;;;35.58;20.63;;;;;;;5.06;100.00;99691.84;5055096;28;20072;-75
2021/12/03 01:52:53;;;;;;;33.65;19.77;;;;;;;4.95;100.00;99695.59;5055149;28;20411;-75
2021/12/03 01:55:21;;;;;;;34.80;19.35;;;;;;;4.94;100.00;99689.31;5055296;28;20377;-75
2021/12/03 01:57:50;;;;;;;37.28;20.98;;;;;;;4.87;100.00;99694.19;5055246;28;20491;-75
2021/12/03 02:00:30;;;;;;;36.97;19.17;;;;;;;4.77;100.00;99689.53;5054917;28;20055;-75
2021/12/03 02:02:59;;;;;;;37.85;19.73;;;;;;;4.72;100.00;99697.63;5051771;28;20055;-75
2021/12/03 02:05:28;;;;;;;34.50;20.05;;;;;;;4.70;100.00;99705.22;5036328;28;20067;-75
2021/12/03 02:07:55;;;;;;;34.90;20.52;;;;;;;4.64;100.00;99701.66;5054900;28;20051;-75
2021/12/03 02:10:24;;;;;;;32.95;19.85;;;;;;;4.63;100.00;99707.31;5054773;28;20052;-75
2021/12/03 02:12:53;;;;;;;35.13;20.23;;;;;;;4.78;100.00;99722.84;5054656;28;20041;-75
2021/12/03 02:15:21;;;;;;;31.60;19.42;;;;;;;4.82;100.00;99719.38;5054772;28;20049;-75
2021/12/03 02:17:49;;;;;;;32.22;19.25;;;;;;;4.71;100.00;99723.91;5054609;28;20484;-75
2021/12/03 02:20:18;;;;;;;29.67;17.65;;;;;;;4.59;100.00;99730.63;5036786;28;20044;-75
2021/12/03 02:22:49;;;;;;;32.55;19.15;;;;;;;4.50;100.00;99724.88;5054609;28;20041;-75
2021/12/03 02:25:20;;;;;;;32.13;19.23;;;;;;;4.51;100.00;99740.03;5054407;28;20519;-75
2021/12/03 02:27:51;;;;;;;30.45;18.35;;;;;;;4.52;100.00;99736.25;5031701;28;20048;-76
2021/12/03 02:30:21;;;;;;;32.92;18.15;;;;;;;4.52;100.00;99741.66;5044881;28;20048;-75
2021/12/03 02:32:50;;;;;;;34.20;19.17;;;;;;;4.48;100.00;99748.69;5048563;28;20045;-75
2021/12/03 02:35:20;;;;;;;30.60;17.83;;;;;;;4.40;100.00;99752.72;5054375;28;20052;-75
2021/12/03 02:37:50;;;;;;;33.22;19.02;;;;;;;4.61;100.00;99766.41;5050647;28;20053;-75
2021/12/03 02:40:20;;;;;;;35.00;19.10;;;;;;;4.61;100.00;99777.22;5054415;28;20476;-75
2021/12/03 02:42:49;;;;;;;29.17;19.25;;;;;;;4.62;100.00;99779.69;5035877;28;20055;-75
2021/12/03 02:45:18;;;;;;;30.35;18.08;;;;;;;4.67;100.00;99792.44;5054031;28;20045;-75
2021/12/03 02:47:47;;;;;;;31.60;17.10;;;;;;;4.75;100.00;99797.41;5054027;28;20041;-75
2021/12/03 02:50:17;;;;;;;31.77;18.17;;;;;;;4.77;100.00;99797.97;5054059;28;20041;-75
2021/12/03 02:52:47;;;;;;;29.10;18.13;;;;;;;4.78;100.00;99793.34;5054011;28;20414;-75
2021/12/03 02:55:16;;;;;;;33.35;18.80;;;;;;;4.82;100.00;99808.84;5053772;28;20055;-75
2021/12/03 02:57:44;;;;;;;27.73;16.70;;;;;;;4.80;100.00;99812.88;5053967;28;20416;-75
2021/12/03 03:00:15;;;;;;;31.75;17.77;;;;;;;4.76;100.00;99818.00;5053594;28;20481;-75
2021/12/03 03:02:44;;;;;;;31.17;19.10;;;;;;;4.75;100.00;99826.41;5053420;28;20060;-75
2021/12/03 03:05:14;;;;;;;31.95;16.83;;;;;;;4.74;100.00;99836.41;5035216;28;20385;-75
2021/12/03 03:07:43;;;;;;;28.55;17.00;;;;;;;4.76;100.00;99837.00;5053761;28;20487;-75
2021/12/03 03:10:14;;;;;;;31.63;17.45;;;;;;;4.75;100.00;99848.91;5053763;28;20049;-75
2021/12/03 03:12:43;;;;;;;32.33;17.92;;;;;;;4.80;100.00;99846.22;5053316;28;20051;-75
2021/12/03 03:15:12;;;;;;;25.60;17.17;;;;;;;4.69;100.00;99855.34;5035679;28;20052;-75
2021/12/03 03:17:41;;;;;;;28.42;15.80;;;;;;;4.59;100.00;99860.69;5053388;28;20045;-75
2021/12/03 03:20:10;;;;;;;34.85;18.00;;;;;;;4.53;100.00;99857.09;5053446;28;20063;-75
2021/12/03 03:22:40;;;;;;;28.73;17.02;;;;;;;4.46;100.00;99851.91;5053360;28;20040;-76
2021/12/03 03:25:12;;;;;;;31.38;16.40;;;;;;;4.50;100.00;99858.44;5053387;28;20040;-75
2021/12/03 03:27:40;;;;;;;27.55;16.58;;;;;;;4.49;100.00;99862.22;5053269;28;20045;-75
2021/12/03 03:30:12;;;;;;;30.50;16.90;;;;;;;4.58;100.00;99862.56;5053465;28;20056;-75
2021/12/03 03:32:41;;;;;;;34.15;17.65;;;;;;;4.54;100.00;99872.28;5035544;28;20044;-75
2021/12/03 03:35:10;;;;;;;29.70;16.73;;;;;;;4.54;100.00;99875.00;5053213;28;20049;-74
2021/12/03 03:37:38;;;;;;;26.42;16.38;;;;;;;4.55;100.00;99868.53;5021608;28;20378;-74
2021/12/03 03:40:09;;;;;;;30.00;17.02;;;;;;;4.60;100.00;99865.03;5053132;28;20056;-74
2021/12/03 03:42:37;;;;;;;30.80;17.33;;;;;;;4.70;100.00;99868.66;5052834;28;20052;-75
2021/12/03 03:45:10;;;;;;;30.10;16.27;;;;;;;4.70;100.00;99868.66;5053074;28;20045;-76
2021/12/03 03:47:38;;;;;;;26.98;16.98;;;;;;;4.69;100.00;99871.59;5052391;28;20048;-75
2021/12/03 03:50:08;;;;;;;31.10;16.75;;;;;;;4.70;100.00;99873.25;5052932;28;20049;-75
2021/12/03 03:52:38;;;;;;;28.38;16.55;;;;;;;4.72;100.00;99876.53;5052676;28;20047;-75
2021/12/03 03:55:09;;;;;;;29.90;16.40;;;;;;;4.69;100.00;99872.44;5051931;28;20057;-75
2021/12/03 03:57:38;;;;;;;29.20;15.88;;;;;;;4.65;100.00;99870.50;5035181;28;20116;-75
2021/12/03 04:00:09;;;;;;;30.45;17.13;;;;;;;4.61;100.00;99874.78;5052722;28;20037;-75
2021/12/03 04:02:40;;;;;;;26.67;15.35;;;;;;;4.57;100.00;99883.47;5052402;28;20411;-75
2021/12/03 04:05:09;;;;;;;27.42;16.45;;;;;;;4.46;100.00;99884.44;5034971;28;20757;-75
2021/12/03 04:07:38;;;;;;;28.17;16.33;;;;;;;4.55;100.00;99896.44;5052670;28;20037;-74
2021/12/03 04:10:08;;;;;;;28.77;15.98;;;;;;;4.53;100.00;99895.03;5052521;28;20504;-75
2021/12/03 04:12:36;;;;;;;29.83;15.48;;;;;;;4.43;100.00;99907.44;5052407;28;20041;-75
2021/12/03 04:15:07;;;;;;;32.88;16.80;;;;;;;4.47;100.00;99913.16;5034497;28;20052;-74
2021/12/03 04:17:36;;;;;;;29.48;15.63;;;;;;;4.42;100.00;99915.81;5052399;28;20484;-74
2021/12/03 04:20:06;;;;;;;27.17;16.67;;;;;;;4.38;100.00;99930.94;5052472;28;20040;-75
2021/12/03 04:22:34;;;;;;;29.80;16.02;;;;;;;4.36;100.00;99927.66;5046351;28;20041;-75
2021/12/03 04:25:05;;;;;;;26.20;15.68;;;;;;;4.39;100.00;99927.97;5040617;28;20052;-75
2021/12/03 04:27:34;;;;;;;31.50;16.10;;;;;;;4.38;100.00;99931.75;5035001;28;20037;-75
2021/12/03 04:30:04;;;;;;;27.30;14.68;;;;;;;4.42;100.00;99941.03;5031864;28;20049;-75
2021/12/03 04:32:33;;;;;;;22.95;13.65;;;;;;;4.37;100.00;99951.81;5025199;28;20045;-75
2021/12/03 04:35:01;;;;;;;26.63;15.27;;;;;;;4.34;100.00;99959.63;5031746;28;20054;-75
2021/12/03 04:37:29;;;;;;;24.75;15.65;;;;;;;4.31;100.00;99966.38;5038311;28;20427;-75
2021/12/03 04:39:57;;;;;;;24.67;13.73;;;;;;;4.35;100.00;99969.38;5032383;28;20392;-75
2021/12/03 04:42:25;;;;;;;24.13;14.43;;;;;;;4.36;100.00;99976.44;5019560;28;20049;-74
2021/12/03 04:44:53;;;;;;;24.15;14.15;;;;;;;4.30;100.00;99970.13;5029964;28;20489;-75
2021/12/03 04:47:21;;;;;;;29.77;16.00;;;;;;;4.27;100.00;99982.31;5030726;28;20052;-75
2021/12/03 04:49:49;;;;;;;23.67;14.27;;;;;;;4.28;100.00;99985.81;5030867;28;20040;-75
2021/12/03 04:52:17;;;;;;;26.38;14.75;;;;;;;4.24;100.00;99995.50;5031865;28;20041;-75
2021/12/03 04:54:45;;;;;;;22.83;14.35;;;;;;;4.26;100.00;100001.50;5033384;28;20038;-75
2021/12/03 04:57:13;;;;;;;23.15;13.52;;;;;;;4.23;100.00;99993.88;5051648;28;20448;-75
2021/12/03 04:59:41;;;;;;;24.95;15.57;;;;;;;4.26;100.00;99998.81;5051811;28;20049;-75
2021/12/03 05:02:09;;;;;;;29.02;14.65;;;;;;;4.23;100.00;100000.13;5051667;28;20048;-75
2021/12/03 05:04:38;;;;;;;24.88;13.95;;;;;;;4.27;100.00;100005.84;5034044;28;20044;-75
2021/12/03 05:09:37;;;;;;;26.30;14.43;;;;;;;4.23;100.00;100005.53;5051782;28;20048;-75
2021/12/03 05:12:06;;;;;;;22.92;14.07;;;;;;;4.26;100.00;100013.16;5051579;28;20480;-75
2021/12/03 05:14:34;;;;;;;23.27;14.38;;;;;;;4.42;100.00;100014.19;5051652;28;20041;-75
2021/12/03 05:17:02;;;;;;;22.20;13.55;;;;;;;4.35;100.00;100007.31;5034011;28;20052;-75
2021/12/03 05:19:30;;;;;;;24.50;13.65;;;;;;;4.38;100.00;100014.91;5051502;28;20410;-75
2021/12/03 05:21:58;;;;;;;23.92;12.85;;;;;;;4.54;100.00;100022.16;5033825;28;20041;-75
2021/12/03 05:24:26;;;;;;;23.80;13.68;;;;;;;4.54;100.00;100026.75;5051327;28;20052;-75
2021/12/03 05:26:54;;;;;;;25.65;13.90;;;;;;;4.40;100.00;100034.47;5043854;28;20426;-75
2021/12/03 05:29:22;;;;;;;21.98;13.45;;;;;;;4.31;100.00;100034.09;5054516;28;20048;-75
2021/12/03 05:31:50;;;;;;;28.35;13.65;;;;;;;4.32;100.00;100040.31;5050496;28;20052;-75
2021/12/03 05:34:28;;;;;;;25.58;13.85;;;;;;;4.42;100.00;100045.88;5051524;28;20049;-75
2021/12/03 05:36:56;;;;;;;23.35;13.98;;;;;;;4.42;100.00;100048.56;5042892;28;20045;-75
2021/12/03 05:39:24;;;;;;;24.75;13.75;;;;;;;4.55;100.00;100061.72;5044185;28;20041;-75
2021/12/03 05:41:52;;;;;;;25.60;14.13;;;;;;;4.51;100.00;100057.09;5043679;28;20415;-75
2021/12/03 05:44:20;;;;;;;22.20;14.60;;;;;;;4.50;100.00;100072.50;5046564;28;20052;-75
2021/12/03 05:46:48;;;;;;;21.65;14.50;;;;;;;4.39;100.00;100068.84;5039743;28;20034;-75
2021/12/03 05:49:16;;;;;;;22.00;13.52;;;;;;;4.37;100.00;100062.06;5022084;28;20393;-75
2021/12/03 05:51:44;;;;;;;25.58;14.63;;;;;;;4.40;100.00;100072.41;5039761;28;20032;-75
2021/12/03 05:54:12;;;;;;;22.70;15.18;;;;;;;4.41;100.00;100077.53;5048431;28;20053;-75
2021/12/03 05:56:40;;;;;;;24.33;13.88;;;;;;;4.50;100.00;100085.25;5043775;28;20049;-75
2021/12/03 05:59:08;;;;;;;30.10;14.63;;;;;;;4.47;100.00;100081.16;5027198;28;20046;-75
2021/12/03 06:01:36;;;;;;;26.48;14.70;;;;;;;4.43;100.00;100085.44;5042969;28;20495;-75
2021/12/03 06:04:04;;;;;;;22.90;14.40;;;;;;;4.36;100.00;100085.63;5023321;28;20395;-76
2021/12/03 06:06:33;;;;;;;22.67;14.05;;;;;;;4.30;100.00;100090.16;5028228;28;20033;-76
2021/12/03 06:09:02;;;;;;;23.73;14.60;;;;;;;4.28;100.00;100105.00;5042929;28;20045;-75
2021/12/03 06:11:30;;;;;;;32.47;16.05;;;;;;;4.44;100.00;100111.44;5031489;28;20052;-75
2021/12/03 06:13:58;;;;;;;25.27;14.55;;;;;;;4.54;100.00;100110.75;5046563;28;20059;-76
2021/12/03 06:16:29;;;;;;;24.40;14.75;;;;;;;4.60;100.00;100112.50;5048710;28;20049;-76
2021/12/03 06:18:57;;;;;;;24.40;14.32;;;;;;;4.61;100.00;100114.13;5050219;28;20052;-75
2021/12/03 06:21:25;;;;;;;23.45;13.93;;;;;;;4.67;100.00;100123.13;5044574;28;20065;-77
2021/12/03 06:23:53;;;;;;;23.55;13.65;;;;;;;4.57;100.00;100124.66;5038064;28;20048;-75
2021/12/03 06:26:21;;;;;;;24.15;14.55;;;;;;;4.54;100.00;100127.03;5040217;28;20038;-75
2021/12/03 06:28:49;;;;;;;23.88;14.35;;;;;;;4.53;100.00;100131.63;5040057;28;20511;-75
2021/12/03 06:31:17;;;;;;;26.58;13.45;;;;;;;4.54;100.00;100141.41;5040620;28;20037;-75
2021/12/03 06:33:45;;;;;;;26.50;15.35;;;;;;;4.55;100.00;100148.47;5045439;28;20037;-76
2021/12/03 06:36:13;;;;;;;23.42;12.88;;;;;;;4.43;100.00;100145.03;5044161;28;20056;-76
2021/12/03 06:38:41;;;;;;;23.67;14.45;;;;;;;4.25;100.00;100149.66;5044542;28;20041;-75
2021/12/03 06:41:09;;;;;;;24.70;14.85;;;;;;;4.16;100.00;100153.88;5045745;28;20048;-75
2021/12/03 06:43:37;;;;;;;21.65;13.25;;;;;;;4.23;100.00;100162.66;5043337;28;20045;-75
2021/12/03 06:46:05;;;;;;;27.17;14.80;;;;;;;4.26;100.00;100161.31;5047301;28;20049;-75
2021/12/03 06:48:33;;;;;;;27.30;14.95;;;;;;;4.29;100.00;100167.06;5042316;28;20057;-76
2021/12/03 06:51:02;;;;;;;26.08;14.02;;;;;;;4.28;100.00;100170.84;5047702;28;20056;-75
2021/12/03 06:53:45;;;;;;;28.98;14.15;;;;;;;4.29;100.00;100180.63;5024495;28;20045;-75
2021/12/03 06:56:21;;;;;;;21.58;13.95;;;;;;;4.28;100.00;100178.16;5041376;28;20057;-75
2021/12/03 06:58:50;;;;;;;27.42;14.40;;;;;;;4.22;100.00;100187.25;5042711;28;20370;-76
2021/12/03 07:01:18;;;;;;;23.38;13.40;;;;;;;4.12;100.00;100191.47;5047292;28;20049;-75
2021/12/03 07:03:46;;;;;;;24.42;14.05;;;;;;;4.16;100.00;100203.44;5023768;28;20048;-75
2021/12/03 07:06:14;;;;;;;22.48;13.98;;;;;;;4.09;100.00;100202.78;5039633;28;20053;-75
2021/12/03 07:08:42;;;;;;;21.23;13.40;;;;;;;4.08;100.00;100200.31;5049270;28;20045;-75
2021/12/03 07:11:09;;;;;;;22.20;13.63;;;;;;;4.22;100.00;100206.22;5053500;28;20044;-75
2021/12/03 07:13:37;;;;;;;25.98;13.70;;;;;;;4.25;100.00;100222.00;5053648;28;20045;-75
2021/12/03 07:16:05;;;;;;;22.08;13.77;;;;;;;4.27;100.00;100225.28;5053278;28;20037;-75
2021/12/03 07:18:34;;;;;;;23.65;13.20;;;;;;;4.33;100.00;100229.69;5056217;28;20045;-75
2021/12/03 07:21:02;;;;;;;27.80;14.77;;;;;;;4.22;100.00;100241.44;5056899;28;20408;-75
2021/12/03 07:23:30;;;;;;;28.48;16.25;;;;;;;4.10;100.00;100255.06;5053355;28;20058;-75
2021/12/03 07:25:59;;;;;;;27.42;15.15;;;;;;;4.05;100.00;100250.34;5053163;28;20400;-75
2021/12/03 07:28:27;;;;;;;25.83;13.95;;;;;;;4.00;100.00;100252.97;5034649;28;20041;-75
2021/12/03 07:30:55;;;;;;;27.00;14.88;;;;;;;4.03;100.00;100257.91;5052799;28;20508;-75
2021/12/03 07:33:23;;;;;;;24.75;14.98;;;;;;;3.96;100.00;100260.78;5035529;28;20403;-75
2021/12/03 07:35:53;;;;;;;26.25;14.00;;;;;;;3.97;100.00;100262.41;5052811;28;20420;-75
2021/12/03 07:38:21;;;;;;;26.48;13.95;;;;;;;3.96;100.00;100268.88;5035316;28;20395;-75
2021/12/03 07:40:49;;;;;;;25.50;13.48;;;;;;;3.92;100.00;100270.47;5052923;28;20492;-75
2021/12/03 07:43:17;;;;;;;25.08;14.10;;;;;;;3.90;100.00;100278.81;5052834;28;20476;-76
2021/12/03 07:45:48;;;;;;;25.10;15.10;;;;;;;3.88;100.00;100277.41;5052837;28;20041;-75
2021/12/03 07:48:17;;;;;;;26.08;14.60;;;;;;;3.93;100.00;100287.50;5052707;28;20033;-75
2021/12/03 07:50:45;;;;;;;25.05;15.57;;;;;;;3.99;100.00;100290.09;5052727;28;20048;-75
2021/12/03 07:53:16;;;;;;;23.70;14.07;;;;;;;4.10;100.00;100287.56;5052556;28;20060;-76
2021/12/03 07:55:46;;;;;;;28.40;14.75;;;;;;;4.20;100.00;100286.91;5052656;28;20052;-76
2021/12/03 07:58:14;;;;;;;26.15;12.82;;;;;;;4.38;100.00;100302.09;5052381;28;20051;-76
2021/12/03 08:00:44;;;;;;;21.55;12.80;;;;;;;4.53;100.00;100302.38;5052620;28;20072;-76
2021/12/03 08:03:17;;;;;;;23.80;11.93;;;;;;;4.88;100.00;100302.34;5034048;28;20080;-76
2021/12/03 08:05:46;;;;;;;21.73;11.95;;;;;;;5.09;100.00;100298.84;5052560;28;20087;-76
2021/12/03 08:08:14;;;;;;;19.42;10.93;;;;;;;5.20;100.00;100294.41;5052230;28;20060;-76
2021/12/03 08:10:41;;;;;;;21.50;11.77;;;;;;;5.12;100.00;100311.09;5052274;28;20045;-76
2021/12/03 08:13:09;;;;;;;21.05;11.82;;;;;;;5.30;100.00;100320.00;5052233;28;20128;-76
2021/12/03 08:15:38;;;;;;;21.05;10.52;;;;;;;5.23;99.46;100323.72;5052211;28;20044;-76
2021/12/03 08:18:06;;;;;;;17.50;10.65;;;;;;;5.13;99.77;100320.06;5033882;28;20053;-76
2021/12/03 08:20:34;;;;;;;21.15;10.98;;;;;;;5.13;100.00;100325.50;5052065;28;20404;-76
2021/12/03 08:23:02;;;;;;;22.08;11.13;;;;;;;5.25;100.00;100339.75;5033904;28;20049;-76
2021/12/03 08:25:30;;;;;;;19.95;12.45;;;;;;;5.14;100.00;100332.56;5052049;28;20495;-76
2021/12/03 08:27:59;;;;;;;23.10;11.60;;;;;;;5.09;100.00;100342.25;5051964;28;20048;-76
2021/12/03 08:30:29;;;;;;;19.27;11.27;;;;;;;5.22;100.00;100337.53;5052040;28;20480;-76
2021/12/03 08:32:58;;;;;;;19.98;11.85;;;;;;;5.17;100.00;100343.72;5051817;28;20048;-76
2021/12/03 08:35:26;;;;;;;21.63;11.85;;;;;;;5.10;100.00;100354.75;5051920;28;20052;-76
2021/12/03 08:37:54;;;;;;;19.23;12.15;;;;;;;5.05;100.00;100356.56;5051636;28;20049;-76
2021/12/03 08:40:23;;;;;;;24.48;11.95;;;;;;;5.08;100.00;100356.09;5051699;28;20049;-76
2021/12/03 08:42:51;;;;;;;23.70;13.57;;;;;;;5.04;100.00;100360.34;5051653;28;20048;-76
2021/12/03 08:45:20;;;;;;;22.50;12.55;;;;;;;5.05;100.00;100362.81;5051960;28;20049;-76
2021/12/03 08:47:52;;;;;;;23.00;13.02;;;;;;;5.12;100.00;100368.06;5051801;28;20048;-76
2021/12/03 08:51:08;;;;;;;22.73;13.10;;;;;;;5.05;100.00;100380.97;5051932;28;20041;-75
2021/12/03 08:55:43;;;;;;;24.80;13.88;;;;;;;4.96;100.00;100388.72;5051738;28;20044;-76
2021/12/03 08:58:14;;;;;;;26.77;14.00;;;;;;;4.97;100.00;100387.63;5033607;28;20074;-76
2021/12/03 09:00:43;;;;;;;25.20;15.15;;;;;;;4.96;100.00;100391.41;5051630;28;20052;-76
2021/12/03 09:03:11;;;;;;;29.05;15.68;;;;;;;4.97;100.00;100398.47;5051324;28;20048;-76
2021/12/03 09:05:40;;;;;;;29.10;15.00;;;;;;;5.04;99.19;100404.56;5051637;28;20040;-76
2021/12/03 09:08:08;;;;;;;29.27;16.08;;;;;;;4.94;99.89;100404.41;5051372;28;20048;-76
2021/12/03 09:10:40;;;;;;;26.80;15.35;;;;;;;4.95;100.00;100408.75;5034096;28;20049;-76
2021/12/03 09:13:09;;;;;;;26.77;14.63;;;;;;;4.99;100.00;100407.22;5051490;28;20053;-76
2021/12/03 09:15:54;;;;;;;30.23;14.30;;;;;;;5.05;100.00;100417.06;5051624;28;20052;-76
2021/12/03 09:18:29;;;;;;;22.23;13.55;;;;;;;5.07;100.00;100420.34;5051506;28;20052;-76
2021/12/03 09:21:22;;;;;;;24.17;13.88;;;;;;;5.14;99.54;100431.03;5036652;28;20480;-76
2021/12/03 09:26:26;;;;;;;26.52;13.43;;;;;;;5.34;97.63;100441.38;5037609;28;20037;-77
2021/12/03 09:29:02;;;;;;;26.02;14.18;;;;;;;5.40;98.21;100444.16;5033335;28;20491;-76
2021/12/03 09:31:33;;;;;;;22.27;12.48;;;;;;;5.43;96.85;100444.47;5051281;28;20041;-76
2021/12/03 09:34:01;;;;;;;24.00;13.05;;;;;;;5.54;97.50;100444.66;5051263;28;20064;-76
2021/12/03 09:36:29;;;;;;;22.15;12.75;;;;;;;5.55;96.09;100444.41;5033528;28;20056;-75
2021/12/03 09:38:57;;;;;;;22.80;13.43;;;;;;;5.61;96.58;100442.56;5051166;28;20060;-75
2021/12/03 09:41:25;;;;;;;22.30;12.73;;;;;;;5.71;93.88;100444.63;5033388;28;20049;-76
2021/12/03 09:43:53;;;;;;;19.90;11.30;;;;;;;5.87;92.47;100445.66;5051136;28;20040;-75
2021/12/03 09:46:25;;;;;;;20.13;11.65;;;;;;;5.85;91.07;100448.59;5050915;28;20527;-75
2021/12/03 09:51:42;;;;;;;22.17;11.85;;;;;;;6.05;88.43;100445.38;5050951;28;20049;-75
2021/12/03 09:56:51;;;;;;;21.63;11.57;;;;;;;6.37;85.32;100454.72;5054752;28;20396;-76
2021/12/03 10:02:06;;;;;;;18.55;10.90;;;;;;;7.11;84.13;100459.75;5049981;28;20054;-76
2021/12/03 10:10:54;;;;;;;20.33;12.57;;;;;;;8.08;79.53;100457.91;5004823;28;20057;-77
2021/12/03 10:18:51;;;;;;;21.25;12.30;;;;;;;8.34;77.44;100458.81;5054337;28;20057;-75
2021/12/03 10:21:59;;;;;;;22.42;12.65;;;;;;;8.54;78.28;100459.16;5036615;28;20064;-75
2021/12/03 10:30:12;;;;;;;23.52;12.60;;;;;;;8.70;77.84;100465.50;5006101;28;20049;-75
2021/12/03 10:51:50;;;;;;;22.30;14.25;;;;;;;8.45;80.07;100458.84;5057707;28;20063;-75
2021/12/03 11:46:08;;;;;;;8.60;5.68;;;;;;;10.88;55.24;100448.50;5038970;28;20056;-75
2021/12/03 11:49:09;;;;;;;11.43;7.18;;;;;;;11.12;59.83;100447.78;5052084;28;20045;-75
2021/12/03 13:21:12;;;;;;;2.30;1.73;;;;;;;10.48;47.53;100421.16;5046308;28;19931;-76
2021/12/03 13:59:06;;;;;;;8.63;3.90;;;;;;;9.14;54.59;100445.84;5047369;28;20053;-80
2021/12/03 14:47:02;;;;;;;6.22;3.38;;;;;;;8.69;58.69;100516.50;5048161;28;20531;-79
2021/12/03 14:52:19;;;;;;;6.13;3.50;;;;;;;8.60;57.46;100516.19;5050376;28;20045;-79
2021/12/03 14:57:57;;;;;;;3.67;3.08;;;;;;;8.53;60.16;100521.09;5039624;28;20041;-78
2021/12/03 15:08:53;;;;;;;8.82;4.70;;;;;;;8.40;60.73;100521.56;5049663;28;20045;-79
2021/12/03 15:30:27;;;;;;;5.05;3.33;;;;;;;8.05;61.75;100523.84;5046871;28;20056;-78
2021/12/03 15:35:51;;;;;;;9.20;3.22;;;;;;;7.91;64.37;100526.19;5045967;28;20693;-79
2021/12/03 16:03:53;;;;;;;5.85;3.78;;;;;;;7.57;64.19;100542.88;5039652;28;20045;-79
2021/12/03 16:06:33;;;;;;;4.93;3.22;;;;;;;7.52;67.84;100546.38;5043866;28;20044;-79
2021/12/03 16:09:14;;;;;;;5.28;3.38;;;;;;;7.47;69.33;100547.16;5048457;28;20052;-79
2021/12/03 16:12:03;;;;;;;8.65;3.80;;;;;;;7.39;69.41;100559.34;5052193;28;20049;-79
2021/12/03 16:53:01;;;;;;;14.02;6.15;;;;;;;4.96;82.55;100646.34;5044412;28;20037;-74
2021/12/03 16:55:29;;;;;;;11.77;5.60;;;;;;;4.83;83.66;100642.84;5041339;28;20052;-74
2021/12/03 16:58:00;;;;;;;11.23;5.38;;;;;;;4.89;83.73;100646.47;5045472;28;20049;-76
2021/12/03 17:00:35;;;;;;;9.20;5.72;;;;;;;5.14;83.50;100658.09;5042669;28;20059;-76
2021/12/03 17:03:46;;;;;;;13.07;5.53;;;;;;;5.01;83.77;100653.75;5043888;28;20048;-75
2021/12/03 17:08:46;;;;;;;9.02;6.00;;;;;;;5.16;82.64;100656.78;5046420;28;20523;-74
2021/12/03 17:11:46;;;;;;;10.60;5.68;;;;;;;5.14;82.38;100666.22;5041748;28;20048;-74
2021/12/03 17:28:33;;;;;;;13.13;5.93;;;;;;;4.51;85.57;100686.66;5032029;28;20040;-74
2021/12/03 17:57:51;;;;;;;12.32;4.80;;;;;;;3.94;90.30;100706.13;5047289;28;20048;-75
2021/12/03 18:03:10;;;;;;;10.50;5.10;;;;;;;3.81;91.76;100704.47;5056083;28;20045;-75
2021/12/03 18:08:26;;;;;;;14.27;6.05;;;;;;;3.74;92.77;100707.25;5044506;28;20046;-75
2021/12/03 18:16:34;;;;;;;13.05;6.22;;;;;;;3.73;92.51;100701.00;5045166;28;20052;-75
2021/12/03 18:49:04;;;;;;;17.05;9.13;;;;;;;3.20;97.13;100735.03;5044333;28;20041;-77
2021/12/03 18:54:39;;;;;;;17.23;9.00;;;;;;;3.01;96.66;100751.28;5050088;28;20049;-77
2021/12/03 18:57:13;;;;;;;18.27;9.30;;;;;;;2.97;97.38;100749.25;5006463;28;20049;-74
2021/12/03 18:59:55;;;;;;;20.92;9.80;;;;;;;3.05;96.39;100757.06;5018806;28;20053;-75
2021/12/03 19:02:24;;;;;;;18.65;8.80;;;;;;;2.93;94.93;100759.69;5014983;28;20054;-75
2021/12/03 19:05:00;;;;;;;15.13;8.57;;;;;;;2.81;95.19;100754.19;5011869;28;20049;-75
2021/12/03 19:07:34;;;;;;;16.15;9.48;;;;;;;2.76;96.29;100759.44;5048611;28;20041;-74
2021/12/03 19:10:09;;;;;;;16.75;9.82;;;;;;;2.73;96.22;100749.88;5032618;28;20056;-75
2021/12/03 19:12:40;;;;;;;17.60;9.30;;;;;;;2.67;97.26;100758.88;5032835;28;20045;-77
2021/12/03 19:15:10;;;;;;;18.80;9.65;;;;;;;2.62;97.30;100758.72;5033614;28;20052;-75